Time;durP1;ratioP1;P1;durP2;ratioP2;P2;SDS_P1;SDS_P2;PMS_P1;PMS_P2;Temp;Humidity;BMP_temperature;BMP_pressure;BME280_temperature;BME280_humidity;BME280_pressure;Samples;Min_cycle;Max_cycle;Signal;HPM_P1;HPM_P2
2022/09/28 00:00:32;;;;;;;9.10;3.10;;;7.70;99.90;;;;;;5053230;28;20040;-72
2022/09/28 00:02:58;;;;;;;14.60;3.13;;;7.60;99.90;;;;;;5053544;28;20060;-71
2022/09/28 00:05:25;;;;;;;9.70;3.50;;;7.60;99.90;;;;;;5052597;28;20108;-69
2022/09/28 00:07:53;;;;;;;6.00;2.90;;;7.60;99.90;;;;;;5053474;28;20041;-71
2022/09/28 00:10:21;;;;;;;4.50;2.55;;;7.60;99.90;;;;;;5054645;28;20028;-71
2022/09/28 00:12:50;;;;;;;5.78;3.10;;;7.50;99.90;;;;;;5053185;28;20033;-72
2022/09/28 00:15:17;;;;;;;5.35;3.20;;;7.50;99.90;;;;;;5053637;28;20029;-73
2022/09/28 00:17:46;;;;;;;10.70;4.20;;;7.50;99.90;;;;;;5052387;28;20032;-72
2022/09/28 00:20:12;;;;;;;6.18;3.90;;;7.50;99.90;;;;;;5054546;28;20052;-69
2022/09/28 00:22:38;;;;;;;8.98;3.50;;;7.50;99.90;;;;;;5054471;28;20097;-71
2022/09/28 00:25:05;;;;;;;7.65;3.63;;;7.50;99.90;;;;;;5053260;28;20096;-71
2022/09/28 00:27:31;;;;;;;7.18;4.20;;;7.60;99.90;;;;;;5052076;28;20088;-73
2022/09/28 00:29:57;;;;;;;11.13;4.80;;;7.60;99.90;;;;;;5053125;28;20022;-71
2022/09/28 00:32:23;;;;;;;15.95;6.10;;;7.60;99.90;;;;;;5053086;28;20034;-71
2022/09/28 00:34:50;;;;;;;18.00;6.18;;;7.60;99.90;;;;;;5051700;28;20045;-72
2022/09/28 00:37:20;;;;;;;12.95;5.75;;;7.60;99.90;;;;;;5052999;28;20115;-72
2022/09/28 00:39:47;;;;;;;14.45;5.95;;;7.60;99.90;;;;;;5052828;28;20380;-71
2022/09/28 00:42:16;;;;;;;17.30;6.70;;;7.50;99.90;;;;;;5053386;28;20056;-74
2022/09/28 00:44:56;;;;;;;20.25;7.00;;;7.40;99.90;;;;;;5053205;28;20025;-72
2022/09/28 00:47:36;;;;;;;19.35;6.80;;;7.40;99.90;;;;;;5052243;28;20025;-72
2022/09/28 00:50:05;;;;;;;22.95;7.43;;;7.30;99.90;;;;;;5052875;28;20036;-73
2022/09/28 00:52:37;;;;;;;18.95;7.18;;;7.30;99.90;;;;;;5052463;28;20037;-71
2022/09/28 00:55:07;;;;;;;15.57;6.55;;;7.30;99.90;;;;;;5052893;28;20026;-72
2022/09/28 00:57:34;;;;;;;17.20;7.22;;;7.20;99.90;;;;;;5052355;28;20017;-71
2022/09/28 01:00:00;;;;;;;13.35;6.45;;;7.20;99.90;;;;;;5052211;28;20480;-72
2022/09/28 01:02:26;;;;;;;18.70;7.43;;;7.20;99.90;;;;;;5052476;28;20021;-71
2022/09/28 01:04:53;;;;;;;19.00;7.00;;;7.10;99.90;;;;;;5052304;28;20123;-71
2022/09/28 01:07:20;;;;;;;41.97;7.88;;;7.10;99.90;;;;;;5051842;28;20064;-73
2022/09/28 01:09:47;;;;;;;12.57;6.18;;;7.10;99.90;;;;;;5051931;28;20041;-71
2022/09/28 01:12:12;;;;;;;15.98;5.35;;;7.10;99.90;;;;;;5053000;28;20040;-74
2022/09/28 01:14:40;;;;;;;11.82;4.88;;;7.10;99.90;;;;;;5051870;28;20024;-72
2022/09/28 01:17:19;;;;;;;9.32;4.45;;;7.10;99.90;;;;;;5053027;28;20089;-72
2022/09/28 01:20:07;;;;;;;13.10;4.68;;;7.10;99.90;;;;;;5053136;28;20024;-72
2022/09/28 01:22:54;;;;;;;8.60;4.18;;;7.00;99.90;;;;;;5051050;28;20035;-71
2022/09/28 01:25:38;;;;;;;6.50;3.63;;;7.00;99.90;;;;;;5052606;28;20033;-70
2022/09/28 01:28:14;;;;;;;;;;;7.00;99.90;;;;;;5051718;28;20052;-70
2022/09/28 01:30:57;;;;;;;10.38;4.38;;;7.00;99.90;;;;;;5052425;28;19940;-71
2022/09/28 01:33:27;;;;;;;8.23;3.92;;;7.00;99.90;;;;;;5049981;28;20032;-70
2022/09/28 01:36:01;;;;;;;9.00;4.57;;;7.00;99.90;;;;;;5051839;28;20104;-71
2022/09/28 01:39:01;;;;;;;11.77;3.88;;;7.00;99.90;;;;;;5051609;28;20044;-71
2022/09/28 01:41:29;;;;;;;25.00;4.30;;;7.00;99.90;;;;;;5051513;28;20041;-71
2022/09/28 01:43:56;;;;;;;11.20;3.88;;;7.00;99.90;;;;;;5052625;28;20031;-71
2022/09/28 01:46:27;;;;;;;7.25;3.58;;;7.00;99.90;;;;;;5051805;28;20116;-71
2022/09/28 01:48:57;;;;;;;9.57;3.80;;;6.80;99.90;;;;;;5052136;28;20033;-71
2022/09/28 01:52:06;;;;;;;7.00;3.72;;;6.90;99.90;;;;;;5051378;28;20033;-71
2022/09/28 01:54:57;;;;;;;9.65;4.30;;;6.90;99.90;;;;;;5020866;28;20029;-70
2022/09/28 01:57:36;;;;;;;9.90;4.15;;;6.80;99.90;;;;;;5051890;28;20044;-71
2022/09/28 02:00:06;;;;;;;8.13;4.63;;;6.80;99.90;;;;;;5052436;28;20037;-71
2022/09/28 02:02:38;;;;;;;11.20;5.00;;;6.80;99.90;;;;;;5052299;28;20025;-72
2022/09/28 02:05:12;;;;;;;11.80;5.03;;;6.70;99.90;;;;;;5051423;28;20567;-71
2022/09/28 02:07:44;;;;;;;21.67;5.07;;;6.70;99.90;;;;;;5035149;28;20034;-70
2022/09/28 02:10:18;;;;;;;10.05;5.32;;;6.70;99.90;;;;;;5052314;28;20040;-72
2022/09/28 02:12:58;;;;;;;14.32;5.88;;;6.60;99.90;;;;;;5052349;28;20029;-73
2022/09/28 02:15:31;;;;;;;7.93;4.72;;;6.60;99.90;;;;;;5052688;28;20032;-70
2022/09/28 02:17:56;;;;;;;8.80;4.85;;;6.60;99.90;;;;;;5058584;28;20036;-72
2022/09/28 02:20:23;;;;;;;9.90;4.63;;;6.60;99.90;;;;;;5050211;28;20029;-71
2022/09/28 02:22:52;;;;;;;11.48;4.50;;;6.60;99.90;;;;;;5052203;28;20081;-72
2022/09/28 02:25:27;;;;;;;9.57;4.63;;;6.60;99.90;;;;;;5052112;28;20064;-71
2022/09/28 02:28:04;;;;;;;12.63;4.78;;;6.50;99.90;;;;;;5051734;28;20057;-70
2022/09/28 02:30:31;;;;;;;8.73;4.25;;;6.50;99.90;;;;;;5052396;28;20033;-71
2022/09/28 02:33:15;;;;;;;9.93;4.70;;;6.50;99.90;;;;;;5051894;28;20025;-73
2022/09/28 02:35:41;;;;;;;9.40;4.25;;;6.50;99.90;;;;;;5052147;28;20048;-71
2022/09/28 02:38:09;;;;;;;10.13;4.97;;;6.60;99.90;;;;;;5051629;28;20025;-70
2022/09/28 02:40:36;;;;;;;10.57;5.00;;;6.60;99.90;;;;;;5051382;28;20885;-71
2022/09/28 02:43:18;;;;;;;12.30;5.18;;;6.60;99.90;;;;;;5052177;28;20699;-70
2022/09/28 02:46:10;;;;;;;9.48;4.40;;;6.60;99.90;;;;;;5051636;28;20025;-72
2022/09/28 02:49:25;;;;;;;10.57;4.65;;;6.60;99.90;;;;;;5052503;28;20064;-71
2022/09/28 02:52:18;;;;;;;10.00;4.75;;;6.60;99.90;;;;;;5042789;28;20037;-70
2022/09/28 02:55:10;;;;;;;7.75;4.07;;;6.70;99.90;;;;;;5051464;28;20029;-72
2022/09/28 02:57:39;;;;;;;10.38;4.68;;;6.60;99.90;;;;;;5051302;28;20044;-72
2022/09/28 03:00:17;;;;;;;8.93;4.63;;;6.70;99.90;;;;;;5051561;28;20040;-72
2022/09/28 03:03:11;;;;;;;8.35;4.40;;;6.70;99.90;;;;;;5051771;28;20021;-73
2022/09/28 03:05:51;;;;;;;8.05;4.20;;;6.80;99.90;;;;;;5051473;28;20021;-71
2022/09/28 03:08:26;;;;;;;11.70;4.25;;;6.80;99.90;;;;;;5051549;28;20025;-70
2022/09/28 03:10:59;;;;;;;11.90;4.80;;;6.80;99.90;;;;;;5051309;28;20036;-71
2022/09/28 03:13:27;;;;;;;11.02;5.32;;;6.70;99.90;;;;;;5050784;28;20041;-70
2022/09/28 03:16:07;;;;;;;7.68;4.63;;;6.90;99.90;;;;;;5050944;28;20032;-70
2022/09/28 03:18:33;;;;;;;9.05;4.30;;;6.90;99.90;;;;;;5051504;28;20024;-71
2022/09/28 03:21:00;;;;;;;13.65;4.97;;;6.90;99.90;;;;;;5050829;28;20025;-70
2022/09/28 03:23:26;;;;;;;12.38;5.72;;;6.90;99.90;;;;;;5051518;28;20035;-70
2022/09/28 03:25:51;;;;;;;8.80;4.78;;;6.90;99.90;;;;;;5050969;28;20029;-72
2022/09/28 03:28:17;;;;;;;8.73;4.40;;;6.90;99.90;;;;;;5049764;28;20139;-72
2022/09/28 03:30:43;;;;;;;6.93;3.85;;;7.00;99.90;;;;;;5051304;28;20025;-71
2022/09/28 03:33:08;;;;;;;8.27;4.60;;;7.00;99.90;;;;;;5049378;28;20025;-72
2022/09/28 03:35:34;;;;;;;9.23;4.97;;;6.90;99.90;;;;;;5050763;28;21574;-71
2022/09/28 03:37:59;;;;;;;25.80;5.03;;;7.00;99.90;;;;;;5051122;28;20033;-70
2022/09/28 03:40:25;;;;;;;10.30;4.72;;;7.10;99.90;;;;;;5052288;28;20553;-71
2022/09/28 03:42:50;;;;;;;8.60;4.60;;;7.10;99.90;;;;;;5050760;28;20040;-71
2022/09/28 03:45:16;;;;;;;10.43;4.32;;;7.20;99.90;;;;;;5050823;28;20028;-71
2022/09/28 03:47:47;;;;;;;9.48;5.00;;;7.20;99.90;;;;;;5051316;28;20705;-73
2022/09/28 03:50:14;;;;;;;13.10;4.45;;;7.20;99.90;;;;;;5050704;28;20033;-71
2022/09/28 03:52:40;;;;;;;9.02;5.03;;;7.20;99.90;;;;;;5049845;28;20044;-71
2022/09/28 03:55:09;;;;;;;10.23;5.15;;;7.30;99.90;;;;;;5051102;28;20112;-71
2022/09/28 03:57:35;;;;;;;8.05;5.05;;;7.30;99.90;;;;;;5048889;28;20786;-72
2022/09/28 04:00:02;;;;;;;7.38;4.75;;;7.30;99.90;;;;;;5050591;28;20033;-72
2022/09/28 04:02:29;;;;;;;11.15;5.20;;;7.30;99.90;;;;;;5050262;28;20083;-71
2022/09/28 04:04:55;;;;;;;9.40;5.32;;;7.20;99.90;;;;;;5050256;28;20021;-71
2022/09/28 04:07:21;;;;;;;10.43;5.40;;;7.20;99.90;;;;;;5051091;28;20096;-71
2022/09/28 04:09:46;;;;;;;10.25;5.38;;;7.20;99.90;;;;;;5051013;28;20044;-69
2022/09/28 04:12:12;;;;;;;10.52;6.13;;;7.20;99.90;;;;;;5050668;28;20033;-70
2022/09/28 04:14:37;;;;;;;10.63;5.60;;;7.20;99.90;;;;;;5050778;28;20029;-70
2022/09/28 04:17:03;;;;;;;9.40;5.28;;;7.20;99.90;;;;;;5050930;28;20029;-70
2022/09/28 04:19:29;;;;;;;8.32;5.05;;;7.20;99.90;;;;;;5050579;28;20979;-70
2022/09/28 04:21:54;;;;;;;12.63;5.45;;;7.20;99.90;;;;;;5050838;28;20032;-69
2022/09/28 04:24:20;;;;;;;11.40;5.97;;;7.20;99.90;;;;;;5052229;28;20029;-71
2022/09/28 04:26:46;;;;;;;9.07;5.13;;;7.20;99.90;;;;;;5054346;28;20037;-72
2022/09/28 04:29:14;;;;;;;9.93;5.18;;;7.20;99.90;;;;;;5054991;28;20033;-69
2022/09/28 04:31:51;;;;;;;11.23;5.30;;;7.20;99.90;;;;;;5054375;28;20030;-71
2022/09/28 04:34:21;;;;;;;8.95;5.07;;;7.20;99.90;;;;;;5054356;28;20022;-70
2022/09/28 04:36:47;;;;;;;14.45;6.15;;;7.10;99.90;;;;;;5054163;28;20025;-70
2022/09/28 04:39:15;;;;;;;9.32;5.57;;;7.20;99.90;;;;;;5053787;28;20037;-70
2022/09/28 04:41:41;;;;;;;12.05;6.03;;;7.20;99.90;;;;;;5054217;28;20026;-71
2022/09/28 04:44:07;;;;;;;9.60;5.45;;;7.20;99.90;;;;;;5054337;28;20041;-69
2022/09/28 04:46:33;;;;;;;8.90;5.20;;;7.20;99.90;;;;;;5052738;28;20053;-70
2022/09/28 04:48:59;;;;;;;8.90;5.28;;;7.20;99.90;;;;;;5054324;28;20108;-69
2022/09/28 04:51:25;;;;;;;10.07;5.38;;;7.20;99.90;;;;;;5053398;28;20032;-72
2022/09/28 04:53:50;;;;;;;9.85;5.20;;;7.20;99.90;;;;;;5053230;28;20044;-71
2022/09/28 04:56:17;;;;;;;15.48;5.85;;;7.10;99.90;;;;;;5053950;28;20029;-70
2022/09/28 04:58:43;;;;;;;11.68;6.18;;;7.10;99.90;;;;;;5054015;28;20092;-71
2022/09/28 05:01:14;;;;;;;10.52;5.60;;;7.10;99.90;;;;;;5053885;28;20033;-70
2022/09/28 05:03:40;;;;;;;9.88;5.32;;;7.10;99.90;;;;;;5037033;28;20034;-70
2022/09/28 05:06:06;;;;;;;12.52;5.93;;;7.10;99.90;;;;;;5054194;28;20067;-70
2022/09/28 05:08:34;;;;;;;11.40;5.60;;;7.20;99.90;;;;;;5052061;28;20040;-70
2022/09/28 05:11:05;;;;;;;13.45;6.93;;;7.20;99.90;;;;;;5053674;28;20021;-70
2022/09/28 05:13:34;;;;;;;10.73;5.88;;;7.20;99.90;;;;;;5052656;28;20086;-72
2022/09/28 05:16:00;;;;;;;12.27;5.95;;;7.10;99.90;;;;;;5054876;28;20032;-71
2022/09/28 05:18:26;;;;;;;13.48;6.47;;;7.20;99.90;;;;;;5053377;28;20021;-70
2022/09/28 05:20:51;;;;;;;12.48;6.00;;;7.20;99.90;;;;;;5052935;28;20036;-71
2022/09/28 05:23:17;;;;;;;19.10;6.30;;;7.20;99.90;;;;;;5049775;28;20048;-70
2022/09/28 05:25:44;;;;;;;16.58;7.50;;;7.30;99.90;;;;;;5053602;28;20029;-72
2022/09/28 05:28:10;;;;;;;13.05;6.47;;;7.20;99.90;;;;;;5042596;28;20091;-72
2022/09/28 05:30:37;;;;;;;19.60;8.68;;;7.20;99.90;;;;;;5052817;28;20021;-69
2022/09/28 05:33:03;;;;;;;14.77;7.57;;;7.30;99.90;;;;;;5052292;28;20025;-69
2022/09/28 05:35:29;;;;;;;17.58;7.75;;;7.30;99.90;;;;;;5052513;28;20572;-71
2022/09/28 05:37:55;;;;;;;12.07;7.45;;;7.30;99.90;;;;;;5067804;28;20078;-71
2022/09/28 05:40:21;;;;;;;14.25;7.07;;;7.20;99.90;;;;;;5051879;28;20034;-71
2022/09/28 05:42:47;;;;;;;12.27;7.35;;;7.20;99.90;;;;;;5051637;28;20025;-72
2022/09/28 05:45:13;;;;;;;21.38;9.50;;;7.20;99.90;;;;;;5053185;28;20028;-71
2022/09/28 05:47:40;;;;;;;15.13;7.28;;;7.20;99.90;;;;;;5050528;28;20120;-72
2022/09/28 05:50:10;;;;;;;16.98;7.05;;;7.20;99.90;;;;;;5051631;28;21815;-70
2022/09/28 05:52:40;;;;;;;17.55;6.38;;;7.20;99.90;;;;;;5052857;28;20045;-71
2022/09/28 05:55:06;;;;;;;11.75;6.32;;;7.20;99.90;;;;;;5050328;28;20024;-70
2022/09/28 05:57:32;;;;;;;15.57;6.47;;;7.30;99.90;;;;;;5053084;28;20032;-70
2022/09/28 05:59:58;;;;;;;14.18;6.88;;;7.30;99.90;;;;;;5053269;28;20827;-70
2022/09/28 06:02:24;;;;;;;14.63;7.90;;;7.30;99.90;;;;;;5052182;28;20032;-72
2022/09/28 06:04:50;;;;;;;22.48;9.68;;;7.30;99.90;;;;;;5051628;28;20032;-70
2022/09/28 06:07:16;;;;;;;15.23;8.07;;;7.30;99.90;;;;;;5052074;28;20041;-70
2022/09/28 06:09:42;;;;;;;16.85;8.55;;;7.40;99.90;;;;;;5052208;28;20045;-71
2022/09/28 06:12:07;;;;;;;18.35;8.98;;;7.40;99.90;;;;;;5052230;28;20021;-70
2022/09/28 06:14:33;;;;;;;23.77;8.13;;;7.40;99.90;;;;;;5051204;28;20037;-71
2022/09/28 06:16:58;;;;;;;14.98;7.82;;;7.50;99.90;;;;;;5049676;28;20025;-71
2022/09/28 06:19:24;;;;;;;15.73;7.43;;;7.50;99.90;;;;;;5050896;28;20533;-71
2022/09/28 06:21:49;;;;;;;13.00;7.70;;;7.60;99.90;;;;;;5051091;28;20021;-69
2022/09/28 06:24:15;;;;;;;18.10;8.02;;;7.60;99.90;;;;;;5050350;28;20021;-72
2022/09/28 06:26:41;;;;;;;16.17;6.95;;;7.60;99.90;;;;;;5052461;28;20093;-70
2022/09/28 06:29:06;;;;;;;20.05;7.45;;;7.60;99.90;;;;;;5053966;28;20037;-70
2022/09/28 06:31:32;;;;;;;14.73;7.22;;;7.60;99.90;;;;;;5050337;28;20027;-71
2022/09/28 06:34:00;;;;;;;15.55;7.80;;;7.70;99.90;;;;;;5053409;28;20017;-72
2022/09/28 06:36:30;;;;;;;12.38;7.00;;;7.70;99.90;;;;;;5051855;28;20025;-71
2022/09/28 06:38:55;;;;;;;12.05;6.00;;;7.70;99.90;;;;;;5052007;28;20052;-69
2022/09/28 06:41:21;;;;;;;9.52;5.78;;;7.80;99.90;;;;;;5052896;28;20021;-72
2022/09/28 06:43:47;;;;;;;11.50;5.53;;;7.80;99.90;;;;;;5053248;28;20032;-71
2022/09/28 06:46:13;;;;;;;13.45;5.13;;;7.80;99.90;;;;;;5051911;28;20043;-71
2022/09/28 06:48:39;;;;;;;7.88;4.82;;;7.80;99.90;;;;;;5052148;28;20088;-71
2022/09/28 06:51:05;;;;;;;8.10;4.07;;;7.80;99.90;;;;;;5051983;28;21616;-70
2022/09/28 06:53:31;;;;;;;9.43;4.88;;;7.90;99.90;;;;;;5049690;28;20393;-69
2022/09/28 06:55:57;;;;;;;14.60;5.57;;;7.90;99.90;;;;;;5052857;28;20021;-72
2022/09/28 06:58:23;;;;;;;9.50;5.22;;;7.90;99.90;;;;;;5050249;28;20420;-70
2022/09/28 07:00:52;;;;;;;12.75;6.88;;;8.00;99.90;;;;;;5051661;28;20044;-70
2022/09/28 07:03:21;;;;;;;12.90;6.00;;;8.00;99.90;;;;;;5051964;28;20047;-72
2022/09/28 07:05:55;;;;;;;9.27;5.35;;;8.10;99.90;;;;;;5051880;28;20039;-72
2022/09/28 07:08:27;;;;;;;19.27;8.02;;;8.10;99.90;;;;;;5053893;28;20029;-71
2022/09/28 07:10:54;;;;;;;18.75;9.18;;;8.20;99.90;;;;;;5052726;28;20041;-72
2022/09/28 07:13:24;;;;;;;22.83;11.48;;;8.30;99.90;;;;;;5051988;28;20974;-70
2022/09/28 07:15:58;;;;;;;25.30;11.18;;;8.30;99.90;;;;;;5051477;28;20036;-70
2022/09/28 07:18:25;;;;;;;24.80;11.55;;;8.40;99.90;;;;;;5052519;28;20075;-73
2022/09/28 07:20:51;;;;;;;26.30;12.88;;;8.40;99.90;;;;;;5051078;28;20028;-70
2022/09/28 07:23:17;;;;;;;29.33;14.18;;;8.50;99.90;;;;;;5051538;28;20055;-71
2022/09/28 07:25:47;;;;;;;27.27;13.57;;;8.60;99.90;;;;;;5052027;28;20120;-72
2022/09/28 07:28:14;;;;;;;27.75;14.18;;;8.70;99.90;;;;;;5050933;28;20132;-69
2022/09/28 07:30:39;;;;;;;20.80;9.32;;;8.80;99.90;;;;;;5051101;28;20028;-70
2022/09/28 07:33:08;;;;;;;11.98;6.38;;;8.80;99.90;;;;;;5050548;28;20033;-71
2022/09/28 07:35:34;;;;;;;15.85;8.18;;;8.90;99.90;;;;;;5048850;28;20586;-71
2022/09/28 07:38:02;;;;;;;13.82;7.30;;;8.90;99.90;;;;;;5051500;28;20029;-71
2022/09/28 07:43:13;;;;;;;15.48;8.02;;;9.00;99.90;;;;;;5052269;28;20032;-72
2022/09/28 07:45:43;;;;;;;16.27;7.93;;;9.10;99.90;;;;;;5051171;28;20042;-71
2022/09/28 07:48:08;;;;;;;16.77;8.23;;;9.20;99.90;;;;;;5050836;28;20037;-71
2022/09/28 07:50:34;;;;;;;20.90;10.40;;;9.20;99.90;;;;;;5033806;28;20056;-71
2022/09/28 07:53:00;;;;;;;19.60;8.93;;;9.30;99.90;;;;;;5051828;28;20065;-71
2022/09/28 07:55:25;;;;;;;23.17;9.32;;;9.30;99.90;;;;;;5051106;28;20052;-71
2022/09/28 07:57:59;;;;;;;16.58;9.00;;;9.40;99.90;;;;;;5050839;28;20064;-70
2022/09/28 08:00:26;;;;;;;16.92;8.98;;;9.50;99.90;;;;;;5054602;28;20093;-72
2022/09/28 08:02:51;;;;;;;26.10;13.32;;;9.50;99.90;;;;;;5054045;28;20022;-71
2022/09/28 08:05:17;;;;;;;25.85;12.63;;;9.50;99.90;;;;;;5054636;28;20037;-71
2022/09/28 08:07:43;;;;;;;25.65;12.65;;;9.60;99.90;;;;;;5053442;28;20094;-71
2022/09/28 08:10:09;;;;;;;27.77;13.80;;;9.60;99.90;;;;;;5056327;28;20036;-71
2022/09/28 08:12:35;;;;;;;26.70;13.52;;;9.50;99.90;;;;;;5055834;28;20407;-72
2022/09/28 08:15:01;;;;;;;32.75;16.63;;;9.60;99.90;;;;;;5051185;28;20021;-71
2022/09/28 08:17:26;;;;;;;33.63;15.60;;;9.60;99.90;;;;;;5050245;28;20024;-71
2022/09/28 08:22:37;;;;;;;26.20;14.13;;;9.80;99.90;;;;;;5053482;28;20116;-70
2022/09/28 08:25:03;;;;;;;25.55;12.93;;;9.80;99.90;;;;;;5052762;28;20028;-70
2022/09/28 08:27:29;;;;;;;27.33;13.48;;;9.90;99.90;;;;;;5049822;28;20056;-72
2022/09/28 08:29:55;;;;;;;30.27;14.43;;;9.90;99.90;;;;;;5051758;28;20057;-72
2022/09/28 08:32:20;;;;;;;25.20;12.25;;;9.80;99.90;;;;;;5054348;28;20088;-71
2022/09/28 08:34:46;;;;;;;27.17;13.13;;;9.80;99.90;;;;;;5051923;28;20032;-70
2022/09/28 08:37:11;;;;;;;36.47;15.23;;;9.80;99.90;;;;;;5053065;28;20029;-71
2022/09/28 08:39:37;;;;;;;33.30;15.70;;;9.80;99.90;;;;;;5054139;28;20026;-72
2022/09/28 08:42:28;;;;;;;29.60;15.57;;;9.90;99.90;;;;;;5053975;28;20032;-71
2022/09/28 08:44:57;;;;;;;36.67;14.70;;;9.90;99.90;;;;;;5054464;28;20029;-70
2022/09/28 08:50:23;;;;;;;27.50;13.63;;;10.00;99.90;;;;;;5052768;28;20040;-71
2022/09/28 08:52:56;;;;;;;31.20;14.80;;;10.20;99.90;;;;;;5051947;28;20088;-72
2022/09/28 08:55:37;;;;;;;28.35;14.73;;;10.20;99.90;;;;;;5052979;28;20110;-70
2022/09/28 08:58:21;;;;;;;31.75;15.38;;;10.30;99.90;;;;;;5053657;28;20515;-71
2022/09/28 09:00:50;;;;;;;28.17;13.38;;;10.40;99.90;;;;;;5052842;28;20670;-71
2022/09/28 09:03:19;;;;;;;37.08;14.98;;;10.60;99.90;;;;;;5049988;28;20029;-71
2022/09/28 09:06:00;;;;;;;27.60;14.73;;;10.70;99.90;;;;;;5051335;28;20047;-71
2022/09/28 09:08:32;;;;;;;34.03;15.88;;;10.70;99.90;;;;;;5053112;28;20032;-70
2022/09/28 09:11:12;;;;;;;30.23;15.40;;;10.70;99.90;;;;;;5052950;28;20033;-71
2022/09/28 09:13:44;;;;;;;35.75;17.17;;;10.70;99.90;;;;;;5053782;28;20037;-71
2022/09/28 09:16:30;;;;;;;31.58;15.75;;;10.70;99.90;;;;;;5053217;28;20025;-71
2022/09/28 09:19:35;;;;;;;29.77;14.20;;;10.70;99.90;;;;;;5052824;28;20026;-72
2022/09/28 09:22:16;;;;;;;37.67;15.93;;;10.60;99.90;;;;;;5053260;28;20035;-71
2022/09/28 09:25:06;;;;;;;30.13;13.95;;;10.60;99.90;;;;;;5052340;28;20040;-72
2022/09/28 09:28:00;;;;;;;29.70;14.38;;;10.60;99.90;;;;;;5053321;28;20052;-70
2022/09/28 09:30:35;;;;;;;24.17;12.63;;;10.80;99.90;;;;;;5053370;28;20047;-71
2022/09/28 09:33:36;;;;;;;24.35;11.68;;;10.90;99.90;;;;;;5051857;28;20037;-70
2022/09/28 09:36:20;;;;;;;26.65;11.60;;;11.00;99.90;;;;;;5052678;28;20022;-71
2022/09/28 09:39:02;;;;;;;31.92;12.85;;;11.10;99.90;;;;;;5052470;28;20025;-72
2022/09/28 09:41:46;;;;;;;35.90;17.40;;;11.00;99.90;;;;;;5053336;28;20042;-71
2022/09/28 09:44:26;;;;;;;28.10;14.13;;;10.90;99.90;;;;;;5051446;28;20516;-71
2022/09/28 09:46:58;;;;;;;25.02;12.65;;;11.00;99.90;;;;;;5052101;28;20047;-69
2022/09/28 09:49:49;;;;;;;20.55;10.77;;;11.10;99.90;;;;;;5053218;28;20025;-72
2022/09/28 09:52:28;;;;;;;20.42;10.90;;;11.20;99.90;;;;;;5043355;28;20055;-74
2022/09/28 09:55:13;;;;;;;23.13;12.02;;;11.20;99.90;;;;;;5054725;28;20017;-72
2022/09/28 09:57:56;;;;;;;20.13;10.55;;;11.30;99.90;;;;;;5053070;28;20025;-73
2022/09/28 10:00:22;;;;;;;19.20;10.70;;;11.40;99.90;;;;;;5049298;28;20033;-72
2022/09/28 10:02:49;;;;;;;18.58;10.27;;;11.40;99.90;;;;;;5053716;28;20397;-71
2022/09/28 10:05:22;;;;;;;23.10;10.45;;;11.40;99.90;;;;;;5050376;28;20813;-72
2022/09/28 10:08:00;;;;;;;23.02;11.30;;;11.50;99.90;;;;;;5053362;28;20033;-71
2022/09/28 10:10:31;;;;;;;20.48;10.07;;;11.50;99.90;;;;;;5053584;28;20048;-72
2022/09/28 10:12:57;;;;;;;19.77;10.05;;;11.60;99.90;;;;;;5053529;28;20021;-71
2022/09/28 10:15:29;;;;;;;16.05;9.10;;;11.70;99.90;;;;;;5054210;28;20079;-72
2022/09/28 10:18:01;;;;;;;16.73;9.32;;;11.90;99.90;;;;;;5051865;28;20032;-70
2022/09/28 10:20:30;;;;;;;20.25;9.57;;;12.10;99.90;;;;;;5051455;28;20025;-72
2022/09/28 10:23:00;;;;;;;19.88;10.40;;;12.30;99.90;;;;;;5051168;28;20052;-73
2022/09/28 10:25:28;;;;;;;20.98;10.02;;;12.30;99.90;;;;;;5047373;28;20044;-71
2022/09/28 10:48:24;;;;;;;18.92;9.60;;;11.90;99.90;;;;;;5023952;28;20080;-72
2022/09/28 10:51:13;;;;;;;21.42;9.70;;;11.80;99.90;;;;;;5029166;28;20056;-72
2022/09/28 10:53:39;;;;;;;18.52;9.73;;;11.70;99.90;;;;;;5028255;28;20029;-71
2022/09/28 10:56:26;;;;;;;17.58;9.07;;;11.50;99.90;;;;;;5027556;28;20022;-72
2022/09/28 10:58:53;;;;;;;15.85;8.88;;;11.50;99.90;;;;;;5030885;28;20033;-70
2022/09/28 11:01:29;;;;;;;18.98;10.07;;;11.40;99.90;;;;;;5025818;28;20049;-73
2022/09/28 11:04:05;;;;;;;19.92;10.45;;;11.40;99.90;;;;;;5029011;28;20021;-73
2022/09/28 11:06:36;;;;;;;20.10;10.95;;;11.30;99.90;;;;;;5029303;28;20069;-71
2022/09/28 11:09:06;;;;;;;21.27;9.90;;;11.30;99.90;;;;;;5029854;28;20025;-71
2022/09/28 11:11:39;;;;;;;18.90;9.95;;;11.20;99.90;;;;;;5044596;28;20029;-72
2022/09/28 11:14:26;;;;;;;17.30;8.75;;;11.10;99.90;;;;;;5030721;28;20018;-71
2022/09/28 11:17:29;;;;;;;17.65;8.73;;;11.10;99.90;;;;;;5029838;28;20473;-73
2022/09/28 11:20:18;;;;;;;15.45;8.73;;;11.00;99.90;;;;;;5031103;28;20030;-71
2022/09/28 11:22:47;;;;;;;17.38;9.40;;;11.00;99.90;;;;;;5044397;28;20480;-74
2022/09/28 11:25:22;;;;;;;23.60;10.30;;;10.90;99.90;;;;;;5027310;28;20026;-72
2022/09/28 11:27:51;;;;;;;16.88;9.90;;;10.90;99.90;;;;;;5028162;28;20393;-72
2022/09/28 11:30:23;;;;;;;21.88;10.65;;;10.90;99.90;;;;;;5029257;28;20113;-72
2022/09/28 11:32:51;;;;;;;20.52;11.02;;;10.90;99.90;;;;;;5029718;28;21097;-70
2022/09/28 11:35:44;;;;;;;19.52;10.90;;;10.90;99.90;;;;;;5030049;28;20033;-71
2022/09/28 11:38:32;;;;;;;21.95;11.27;;;11.00;99.90;;;;;;5012162;28;20076;-72
2022/09/28 11:41:24;;;;;;;24.70;12.35;;;11.00;99.90;;;;;;5030812;28;20050;-71
2022/09/28 11:43:59;;;;;;;25.38;13.15;;;10.90;99.90;;;;;;5030886;28;20038;-71
2022/09/28 11:46:59;;;;;;;34.63;12.52;;;10.90;99.90;;;;;;5030094;28;20054;-73
2022/09/28 11:49:32;;;;;;;19.70;10.23;;;11.00;99.90;;;;;;5030652;28;20061;-72
2022/09/28 11:52:04;;;;;;;16.67;8.85;;;11.00;99.90;;;;;;5029324;28;20445;-73
2022/09/28 11:54:43;;;;;;;14.38;8.07;;;11.00;99.90;;;;;;5028718;28;20159;-72
2022/09/28 11:57:17;;;;;;;14.23;8.15;;;11.10;99.90;;;;;;5030005;28;20029;-70
2022/09/28 12:00:04;;;;;;;15.70;8.77;;;11.10;99.90;;;;;;5031020;28;20030;-70
2022/09/28 12:02:44;;;;;;;19.60;7.53;;;11.20;99.90;;;;;;5030407;28;20041;-73
2022/09/28 12:05:24;;;;;;;12.27;7.45;;;11.20;99.90;;;;;;5031259;28;20045;-72
2022/09/28 12:08:06;;;;;;;13.90;7.35;;;11.30;99.90;;;;;;5029738;28;20041;-73
2022/09/28 12:10:40;;;;;;;15.52;7.28;;;11.40;99.90;;;;;;5030078;28;20021;-72
2022/09/28 12:13:19;;;;;;;13.55;6.95;;;11.50;99.90;;;;;;5030119;28;20113;-73
2022/09/28 12:15:44;;;;;;;13.07;7.15;;;11.60;99.90;;;;;;5030347;28;20065;-71
2022/09/28 12:18:51;;;;;;;15.27;8.45;;;11.80;99.90;;;;;;5030286;28;20033;-72
2022/09/28 12:21:39;;;;;;;19.92;8.95;;;12.00;99.90;;;;;;5030780;28;20057;-71
2022/09/28 12:24:05;;;;;;;15.75;8.43;;;12.40;99.90;;;;;;5030841;28;20484;-72
2022/09/28 12:26:52;;;;;;;14.07;7.47;;;12.80;99.90;;;;;;5030704;28;20037;-73
2022/09/28 12:29:32;;;;;;;12.07;6.47;;;13.30;99.90;;;;;;5029174;28;20030;-73
2022/09/28 12:32:01;;;;;;;13.20;5.60;;;13.90;99.90;;;;;;5030195;28;20029;-73
2022/09/28 12:34:27;;;;;;;10.05;5.40;;;14.10;99.90;;;;;;5036876;28;20029;-71
2022/09/28 12:37:21;;;;;;;9.05;5.28;;;14.40;99.90;;;;;;5030188;28;20029;-72
2022/09/28 12:40:19;;;;;;;8.55;4.75;;;14.50;99.90;;;;;;5030732;28;20022;-71
2022/09/28 12:43:13;;;;;;;10.07;4.13;;;14.60;99.90;;;;;;5029442;28;20025;-72
2022/09/28 12:45:49;;;;;;;10.18;5.00;;;14.70;99.90;;;;;;5034371;28;20109;-73
2022/09/28 12:48:40;;;;;;;16.30;9.57;;;14.70;99.90;;;;;;5051797;28;20041;-74
2022/09/28 12:51:46;;;;;;;8.57;5.43;;;14.70;99.90;;;;;;5052267;28;20025;-70
2022/09/28 12:54:21;;;;;;;;;;;14.80;99.90;;;;;;5026592;28;20037;-71
2022/09/28 12:57:24;;;;;;;10.60;5.72;;;14.90;99.90;;;;;;5034602;28;20250;-73
2022/09/28 13:00:02;;;;;;;8.80;5.53;;;14.90;99.90;;;;;;5051760;28;20021;-73
2022/09/28 13:03:30;;;;;;;8.23;4.82;;;14.90;99.90;;;;;;5049033;28;20092;-74
2022/09/28 13:06:03;;;;;;;10.13;5.53;;;15.10;99.90;;;;;;4961307;28;20138;-73
2022/09/28 13:08:36;;;;;;;9.63;5.97;;;15.20;99.90;;;;;;4961231;29;20063;-74
2022/09/28 13:11:40;;;;;;;10.27;5.95;;;15.20;99.90;;;;;;5027618;28;20507;-72
2022/09/28 13:14:08;;;;;;;9.93;5.50;;;15.40;99.90;;;;;;5051022;28;20112;-73
2022/09/28 13:16:40;;;;;;;7.97;4.57;;;15.50;99.90;;;;;;5051280;28;20021;-74
2022/09/28 13:19:29;;;;;;;9.43;5.22;;;15.40;99.90;;;;;;5052198;28;20025;-71
2022/09/28 13:22:12;;;;;;;10.35;4.97;;;15.30;99.90;;;;;;5051791;28;20022;-73
2022/09/28 13:24:43;;;;;;;10.27;5.53;;;15.10;99.90;;;;;;5049468;28;20029;-71
2022/09/28 13:27:21;;;;;;;12.45;5.10;;;14.90;99.90;;;;;;5052105;28;20032;-73
2022/09/28 13:29:49;;;;;;;10.43;5.18;;;15.00;99.90;;;;;;5052512;28;20037;-74
2022/09/28 13:32:16;;;;;;;8.10;4.50;;;15.10;99.90;;;;;;5051041;28;20031;-71
2022/09/28 13:34:48;;;;;;;6.15;3.83;;;15.30;99.90;;;;;;5052677;28;20085;-73
2022/09/28 13:37:18;;;;;;;7.18;3.97;;;15.40;99.90;;;;;;5052150;28;20025;-72
2022/09/28 13:39:44;;;;;;;6.70;4.15;;;15.30;99.90;;;;;;5051627;28;20059;-71